< < Back
Terminal Aerodrome Forecast


Current Version              Previous Versions:   1  2  3  4  5  6  7  8  9  

Terminal Aerodrome Forecast

472
FTUS42 KFFC 311100
TAFPDK
TAF
KPDK 311130Z 3112/0112 32002KT P6SM SKC
     FM311500 32006KT P6SM SCT120
     FM311900 31010G18KT P6SM BKN080
     FM010100 33016G26KT P6SM BKN025 PROB30 0101/0106 6SM -SHRA
     FM011000 33020G30KT P6SM BKN035=

Latest METAR

407
SAUS70 KWBC 311100 RRH
MTRPDK
METAR KPDK 311053Z 00000KT 10SM CLR 04/03 A2993 RMK AO2 SLP140
T00440028


USA.gov is the U.S. government's official web portal to all federal, state and local government web resources and services.